createdAt,value
2019-01-23T00:01:35.334Z,42.50
2019-01-23T00:04:06.068Z,40.90
2019-01-23T00:06:36.749Z,37.83
2019-01-23T00:09:07.750Z,40.57
2019-01-23T00:11:37.589Z,38.90
2019-01-23T00:14:07.350Z,36.27
2019-01-23T00:16:37.412Z,43.15
2019-01-23T00:19:07.160Z,40.80
2019-01-23T00:21:36.951Z,41.77
2019-01-23T00:24:07.793Z,37.50
2019-01-23T00:26:37.982Z,41.17
2019-01-23T00:29:07.886Z,40.23
2019-01-23T00:31:37.756Z,46.10
2019-01-23T00:34:10.216Z,39.77
2019-01-23T00:36:40.020Z,35.30
2019-01-23T00:39:10.134Z,38.90
2019-01-23T00:41:39.981Z,43.10
2019-01-23T00:44:09.749Z,38.80
2019-01-23T00:46:39.546Z,39.93
2019-01-23T00:49:09.354Z,44.50
2019-01-23T00:51:39.177Z,45.83
2019-01-23T00:54:09.674Z,47.03
2019-01-23T00:56:39.492Z,38.90
2019-01-23T00:59:09.283Z,42.97
2019-01-23T01:01:39.449Z,43.13
2019-01-23T01:04:09.225Z,41.60
2019-01-23T01:06:38.997Z,43.97
2019-01-23T01:09:10.389Z,46.80
2019-01-23T01:11:40.212Z,39.60
2019-01-23T01:14:10.061Z,42.57
2019-01-23T01:16:39.819Z,41.30
2019-01-23T01:19:09.608Z,39.10
2019-01-23T01:21:39.356Z,38.33
2019-01-23T01:24:09.132Z,42.20
2019-01-23T01:26:38.952Z,41.83
2019-01-23T01:29:08.728Z,39.77
2019-01-23T01:31:38.570Z,34.87
2019-01-23T01:34:09.128Z,38.47
2019-01-23T01:36:38.890Z,44.47
2019-01-23T01:39:09.506Z,38.97
2019-01-23T01:41:39.298Z,38.67
2019-01-23T01:44:09.254Z,38.70
2019-01-23T01:46:39.097Z,36.27
2019-01-23T01:49:08.860Z,38.73
2019-01-23T01:51:39.030Z,35.53
2019-01-23T01:54:08.804Z,43.17
2019-01-23T01:56:38.618Z,42.40
2019-01-23T01:59:08.324Z,37.90
2019-01-23T02:01:38.159Z,35.47
2019-01-23T02:04:07.919Z,40.40
2019-01-23T02:06:38.629Z,40.07
2019-01-23T02:09:09.515Z,39.73
2019-01-23T02:11:39.288Z,46.47
2019-01-23T02:14:09.036Z,40.20
2019-01-23T02:16:39.158Z,37.07
2019-01-23T02:19:08.986Z,44.53
2019-01-23T02:21:39.060Z,40.50
2019-01-23T02:24:10.223Z,37.73
2019-01-23T02:26:40.016Z,34.90
2019-01-23T02:29:10.750Z,42.87
2019-01-23T02:31:40.503Z,47.90
2019-01-23T02:34:11.060Z,42.30
2019-01-23T02:36:41.152Z,36.80
2019-01-23T02:39:10.934Z,35.40
2019-01-23T02:41:41.077Z,40.97
2019-01-23T02:44:10.896Z,41.03
2019-01-23T02:46:40.994Z,38.65
2019-01-23T02:49:10.789Z,40.30
2019-01-23T02:51:40.523Z,45.97
2019-01-23T02:54:10.303Z,44.63
2019-01-23T02:56:40.152Z,37.70
2019-01-23T02:59:17.350Z,44.47
2019-01-23T03:01:42.656Z,42.67
2019-01-23T03:04:12.516Z,40.77
2019-01-23T03:06:43.311Z,44.60
2019-01-23T03:09:13.089Z,44.27
2019-01-23T03:11:43.071Z,41.03
2019-01-23T03:14:12.905Z,39.30
2019-01-23T03:16:42.672Z,43.80
2019-01-23T03:19:12.832Z,41.30
2019-01-23T03:21:42.641Z,37.20
2019-01-23T03:24:12.584Z,40.87
2019-01-23T03:26:42.639Z,46.77
2019-01-23T03:29:12.315Z,38.70
2019-01-23T03:31:42.327Z,40.07
2019-01-23T03:34:12.946Z,46.50
2019-01-23T03:36:42.772Z,42.43
2019-01-23T03:39:12.572Z,36.13
2019-01-23T03:41:42.419Z,44.00
2019-01-23T03:44:12.286Z,44.10
2019-01-23T03:46:42.090Z,42.77
2019-01-23T03:49:11.848Z,40.20
2019-01-23T03:51:41.621Z,38.10
2019-01-23T03:54:11.736Z,40.07
2019-01-23T03:56:42.015Z,40.27
2019-01-23T03:59:12.704Z,42.20
2019-01-23T04:01:42.537Z,41.00
2019-01-23T04:04:12.375Z,44.03
2019-01-23T04:06:42.504Z,45.27
2019-01-23T04:09:12.249Z,38.57
2019-01-23T04:11:42.065Z,38.70
2019-01-23T04:14:11.844Z,45.73
2019-01-23T04:16:41.641Z,44.60
2019-01-23T04:19:11.485Z,39.30
2019-01-23T04:21:41.243Z,44.57
2019-01-23T04:24:11.012Z,47.63
2019-01-23T04:26:40.789Z,42.07
2019-01-23T04:29:10.806Z,41.53
2019-01-23T04:31:41.630Z,39.50
2019-01-23T04:34:12.273Z,41.80
2019-01-23T04:36:42.454Z,43.53
2019-01-23T04:39:12.148Z,37.43
2019-01-23T04:41:42.165Z,39.23
2019-01-23T04:44:11.923Z,67.63
2019-01-23T04:46:42.388Z,43.10
2019-01-23T04:49:12.158Z,38.60
2019-01-23T04:51:47.358Z,41.93
2019-01-23T04:54:18.676Z,41.10
2019-01-23T04:56:48.416Z,42.30
2019-01-23T04:59:18.948Z,40.23
2019-01-23T05:01:48.650Z,40.27
2019-01-23T05:04:18.726Z,38.73
2019-01-23T05:06:48.536Z,37.27
2019-01-23T05:09:18.287Z,38.03
2019-01-23T05:11:48.068Z,44.13
2019-01-23T05:14:17.730Z,42.20
2019-01-23T05:16:47.433Z,37.13
2019-01-23T05:19:17.186Z,37.00
2019-01-23T05:21:46.960Z,43.37
2019-01-23T05:24:16.701Z,37.17
2019-01-23T05:26:46.373Z,46.57
2019-01-23T05:29:16.123Z,43.73
2019-01-23T05:31:45.876Z,38.90
2019-01-23T05:34:16.328Z,42.37
2019-01-23T05:36:46.006Z,39.57
2019-01-23T05:39:15.761Z,43.10
2019-01-23T05:41:45.876Z,38.70
2019-01-23T05:44:15.546Z,43.17
2019-01-23T05:46:45.587Z,43.07
2019-01-23T05:49:15.317Z,41.67
2019-01-23T05:51:45.011Z,40.67
2019-01-23T05:54:14.748Z,42.63
2019-01-23T05:56:44.501Z,45.53
2019-01-23T05:59:14.263Z,37.53
2019-01-23T06:01:44.335Z,45.37
2019-01-23T06:04:14.097Z,43.30
2019-01-23T06:06:44.900Z,40.07
2019-01-23T06:09:14.656Z,38.73
2019-01-23T06:11:44.350Z,40.63
2019-01-23T06:14:14.111Z,44.70
2019-01-23T06:16:43.787Z,38.57
2019-01-23T06:19:13.550Z,38.87
2019-01-23T06:21:43.340Z,40.93
2019-01-23T06:24:13.051Z,41.27
2019-01-23T06:26:42.892Z,42.13
2019-01-23T06:29:12.579Z,40.77
2019-01-23T06:31:42.256Z,44.07
2019-01-23T06:34:12.962Z,47.13
2019-01-23T06:36:42.713Z,49.13
2019-01-23T06:39:12.474Z,50.77
2019-01-23T06:41:42.299Z,42.97
2019-01-23T06:44:12.249Z,43.23
2019-01-23T06:46:41.999Z,40.90
2019-01-23T06:49:11.795Z,44.20
2019-01-23T06:51:41.557Z,45.10
2019-01-23T06:54:11.582Z,43.13
2019-01-23T06:56:41.330Z,41.73
2019-01-23T06:59:11.144Z,42.70
2019-01-23T07:01:40.961Z,44.57
2019-01-23T07:04:11.176Z,43.00
2019-01-23T07:06:40.912Z,41.93
2019-01-23T07:09:10.965Z,41.73
2019-01-23T07:11:40.635Z,40.15
2019-01-23T07:14:10.664Z,42.00
2019-01-23T07:16:40.452Z,39.00
2019-01-23T07:19:10.207Z,36.83
2019-01-23T07:21:39.974Z,45.13
2019-01-23T07:24:10.017Z,39.43
2019-01-23T07:26:39.717Z,40.27
2019-01-23T07:29:09.837Z,41.20
2019-01-23T07:31:39.959Z,50.60
2019-01-23T07:34:10.713Z,44.73
2019-01-23T07:36:40.465Z,42.23
2019-01-23T07:39:11.171Z,46.57
2019-01-23T07:41:41.210Z,47.87
2019-01-23T07:44:11.329Z,52.33
2019-01-23T07:46:41.148Z,52.40
2019-01-23T07:49:10.969Z,45.63
2019-01-23T07:51:40.656Z,47.53
2019-01-23T07:54:10.656Z,41.77
2019-01-23T07:56:40.482Z,40.13
2019-01-23T07:59:10.564Z,47.73
2019-01-23T08:01:40.709Z,41.77
2019-01-23T08:04:10.540Z,41.27
2019-01-23T08:06:40.293Z,43.33
2019-01-23T08:09:10.516Z,44.23
2019-01-23T08:11:40.229Z,42.17
2019-01-23T08:14:10.064Z,40.53
2019-01-23T08:16:39.949Z,44.10
2019-01-23T08:19:09.720Z,43.60
2019-01-23T08:21:39.604Z,38.20
2019-01-23T08:24:09.368Z,35.90
2019-01-23T08:26:39.201Z,42.73
2019-01-23T08:29:08.967Z,38.93
2019-01-23T08:31:38.711Z,44.00
2019-01-23T08:34:09.395Z,41.90
2019-01-23T08:36:39.220Z,39.63
2019-01-23T08:39:09.369Z,33.13
2019-01-23T08:41:39.277Z,36.47
2019-01-23T08:44:08.963Z,37.70
2019-01-23T08:46:38.819Z,37.80
2019-01-23T08:49:08.575Z,37.83
2019-01-23T08:51:39.413Z,31.03
2019-01-23T08:54:09.162Z,32.87
2019-01-23T08:56:38.916Z,36.93
2019-01-23T08:59:08.581Z,36.17
2019-01-23T09:01:38.328Z,30.10
2019-01-23T09:04:08.346Z,35.63
2019-01-23T09:06:38.610Z,37.30
2019-01-23T09:09:08.650Z,38.77
2019-01-23T09:11:38.481Z,33.20
2019-01-23T09:14:08.296Z,34.17
2019-01-23T09:16:37.969Z,32.07
2019-01-23T09:19:07.721Z,35.10
2019-01-23T09:21:37.690Z,39.03
2019-01-23T09:24:07.438Z,33.87
2019-01-23T09:26:37.203Z,32.37
2019-01-23T09:29:07.025Z,32.90
2019-01-23T09:32:04.363Z,54.30
2019-01-23T09:34:57.981Z,48.13
2019-01-23T09:38:11.369Z,29.07
2019-01-23T09:41:10.511Z,36.00
2019-01-23T09:44:06.310Z,32.70
2019-01-23T09:47:18.949Z,32.60
2019-01-23T09:50:28.967Z,31.03
2019-01-23T09:53:09.951Z,27.90
2019-01-23T09:55:39.990Z,32.33
2019-01-23T09:58:11.112Z,30.50
2019-01-23T10:00:41.226Z,35.00
2019-01-23T10:03:10.953Z,38.17
2019-01-23T10:05:40.705Z,31.53
2019-01-23T10:08:10.451Z,36.10
2019-01-23T10:10:40.187Z,42.10
2019-01-23T10:13:09.936Z,34.30
2019-01-23T10:15:49.260Z,34.07
2019-01-23T10:18:19.003Z,33.60
2019-01-23T10:20:48.753Z,34.10
2019-01-23T10:23:18.493Z,40.20
2019-01-23T10:25:48.246Z,31.23
2019-01-23T10:28:17.918Z,35.93
2019-01-23T10:30:47.706Z,28.30
2019-01-23T10:33:17.580Z,30.87
2019-01-23T10:35:47.953Z,31.93
2019-01-23T10:38:17.797Z,27.73
2019-01-23T10:40:47.551Z,30.60
2019-01-23T10:43:18.403Z,32.90
2019-01-23T10:45:48.499Z,33.13
2019-01-23T10:48:18.727Z,33.43
2019-01-23T10:50:48.545Z,45.20
2019-01-23T10:53:18.356Z,36.70
2019-01-23T10:55:48.139Z,29.63
2019-01-23T10:58:17.884Z,32.23
2019-01-23T11:00:47.992Z,30.27
2019-01-23T11:03:17.750Z,38.30
2019-01-23T11:05:47.612Z,55.70
2019-01-23T11:08:17.502Z,39.00
2019-01-23T11:10:47.305Z,32.63
2019-01-23T11:13:16.998Z,33.83
2019-01-23T11:15:46.782Z,32.27
2019-01-23T11:18:16.554Z,33.67
2019-01-23T11:20:46.320Z,31.53
2019-01-23T11:23:16.200Z,31.40
2019-01-23T11:25:46.435Z,34.60
2019-01-23T11:28:16.273Z,36.93
2019-01-23T11:30:46.101Z,36.43
2019-01-23T11:33:15.862Z,34.77
2019-01-23T11:35:45.637Z,32.63
2019-01-23T11:38:15.515Z,37.07
2019-01-23T11:40:45.273Z,42.60
2019-01-23T11:43:14.967Z,47.93
2019-01-23T11:45:45.118Z,44.83
2019-01-23T11:48:14.843Z,32.00
2019-01-23T11:50:44.573Z,35.73
2019-01-23T11:53:14.789Z,31.20
2019-01-23T11:55:44.635Z,32.57
2019-01-23T11:58:14.459Z,34.07
2019-01-23T12:00:44.223Z,32.87
2019-01-23T12:03:20.689Z,36.57
2019-01-23T12:05:45.483Z,29.00
2019-01-23T12:08:15.240Z,32.07
2019-01-23T12:10:44.922Z,33.47
2019-01-23T12:13:14.702Z,32.97
2019-01-23T12:15:44.545Z,28.23
2019-01-23T12:18:14.389Z,29.57
2019-01-23T12:20:44.121Z,33.10
2019-01-23T12:23:13.895Z,33.00
2019-01-23T12:25:43.690Z,30.60
2019-01-23T12:28:13.710Z,32.63
2019-01-23T12:30:43.570Z,29.73
2019-01-23T12:33:13.370Z,35.60
2019-01-23T12:35:43.181Z,30.23
2019-01-23T12:38:12.956Z,36.63
2019-01-23T12:40:42.768Z,34.90
2019-01-23T12:43:13.035Z,32.07
2019-01-23T12:45:42.713Z,28.83
2019-01-23T12:48:12.540Z,37.97
2019-01-23T12:50:42.305Z,33.73
2019-01-23T12:53:13.313Z,28.63
2019-01-23T12:55:43.222Z,30.97
2019-01-23T12:58:13.115Z,29.40
2019-01-23T13:00:42.975Z,31.30
2019-01-23T13:03:12.730Z,35.30
2019-01-23T13:05:42.560Z,33.00
2019-01-23T13:08:12.416Z,30.50
2019-01-23T13:10:42.216Z,29.77
2019-01-23T13:13:13.152Z,32.03
2019-01-23T13:15:42.896Z,35.53
2019-01-23T13:18:12.752Z,28.90
2019-01-23T13:20:42.696Z,33.27
2019-01-23T13:23:19.444Z,36.70
2019-01-23T13:25:43.830Z,28.80
2019-01-23T13:28:14.339Z,31.67
2019-01-23T13:30:44.303Z,37.30
2019-01-23T13:33:14.094Z,33.00
2019-01-23T13:35:43.868Z,33.70
2019-01-23T13:38:16.199Z,34.90
2019-01-23T13:40:45.993Z,31.77
2019-01-23T13:43:16.079Z,32.98
2019-01-23T13:45:45.922Z,29.03
2019-01-23T13:48:15.834Z,28.23
2019-01-23T13:50:45.972Z,27.30
2019-01-23T13:53:15.762Z,34.00
2019-01-23T13:55:45.518Z,31.53
2019-01-23T13:58:15.285Z,33.53
2019-01-23T14:00:45.075Z,30.13
2019-01-23T14:03:14.921Z,35.83
2019-01-23T14:05:44.665Z,29.90
2019-01-23T14:08:14.423Z,32.53
2019-01-23T14:10:44.176Z,34.30
2019-01-23T14:13:13.963Z,34.63
2019-01-23T14:15:43.774Z,34.33
2019-01-23T14:18:13.517Z,34.87
2019-01-23T14:20:43.357Z,46.30
2019-01-23T14:23:13.109Z,52.87
2019-01-23T14:25:43.208Z,33.03
2019-01-23T14:28:13.046Z,30.83
2019-01-23T14:30:45.018Z,29.97
2019-01-23T14:33:14.854Z,30.02
2019-01-23T14:35:45.734Z,32.97
2019-01-23T14:38:15.883Z,31.00
2019-01-23T14:40:45.651Z,32.30
2019-01-23T14:43:15.490Z,31.40
2019-01-23T14:45:45.253Z,37.07
2019-01-23T14:48:15.083Z,29.43
2019-01-23T14:50:44.865Z,33.10
2019-01-23T14:53:15.074Z,34.87
2019-01-23T14:55:44.805Z,32.37
2019-01-23T14:58:14.571Z,34.67
2019-01-23T15:00:45.444Z,34.30
2019-01-23T15:03:16.517Z,38.03
2019-01-23T15:05:46.984Z,29.90
2019-01-23T15:08:16.732Z,34.00
2019-01-23T15:10:46.441Z,35.00
2019-01-23T15:13:16.646Z,29.83
2019-01-23T15:15:46.387Z,44.00
2019-01-23T15:18:16.187Z,33.87
2019-01-23T15:20:45.863Z,41.37
2019-01-23T15:23:15.630Z,33.80
2019-01-23T15:25:45.402Z,36.40
2019-01-23T15:28:15.534Z,37.03
2019-01-23T15:30:45.394Z,36.83
2019-01-23T15:33:15.135Z,36.47
2019-01-23T15:35:45.128Z,36.00
2019-01-23T15:38:14.900Z,36.77
2019-01-23T15:40:44.956Z,38.67
2019-01-23T15:43:14.812Z,36.00
2019-01-23T15:45:44.938Z,41.80
2019-01-23T15:48:15.002Z,56.20
2019-01-23T15:50:44.874Z,46.50
2019-01-23T15:53:14.624Z,38.00
2019-01-23T15:55:44.397Z,35.53
2019-01-23T15:58:14.508Z,39.07
2019-01-23T16:00:44.383Z,43.67
2019-01-23T16:03:14.263Z,46.93
2019-01-23T16:05:44.111Z,45.60
2019-01-23T16:08:13.948Z,44.13
2019-01-23T16:10:43.729Z,46.70
2019-01-23T16:13:13.873Z,42.20
2019-01-23T16:15:43.855Z,37.83
2019-01-23T16:18:13.623Z,39.00
2019-01-23T16:20:43.717Z,39.07
2019-01-23T16:23:13.557Z,38.47
2019-01-23T16:25:43.326Z,41.47
2019-01-23T16:28:13.028Z,46.10
2019-01-23T16:31:13.439Z,39.70
2019-01-23T16:33:44.328Z,48.40
2019-01-23T16:36:14.350Z,39.80
2019-01-23T16:38:44.031Z,50.13
2019-01-23T16:41:13.836Z,64.73
2019-01-23T16:43:43.934Z,55.97
2019-01-23T16:46:13.669Z,71.13
2019-01-23T16:48:43.476Z,92.80
2019-01-23T16:51:13.220Z,51.80
2019-01-23T16:53:43.153Z,88.73
2019-01-23T16:56:13.428Z,86.03
2019-01-23T16:58:43.188Z,51.00
2019-01-23T17:01:13.327Z,72.50
2019-01-23T17:03:43.081Z,52.13
2019-01-23T17:06:13.015Z,53.00
2019-01-23T17:08:43.228Z,45.30
2019-01-23T17:11:13.239Z,50.13
2019-01-23T17:13:43.365Z,84.57
2019-01-23T17:16:13.122Z,49.57
2019-01-23T17:18:43.079Z,49.47
2019-01-23T17:21:12.871Z,42.70
2019-01-23T17:23:42.616Z,43.70
2019-01-23T17:26:12.365Z,50.43
2019-01-23T17:28:42.223Z,39.40
2019-01-23T17:31:11.986Z,36.07
2019-01-23T17:33:42.876Z,42.80
2019-01-23T17:36:12.624Z,40.57
2019-01-23T17:38:42.726Z,38.00
2019-01-23T17:41:12.476Z,55.83
2019-01-23T17:43:42.313Z,79.03
2019-01-23T17:46:12.085Z,49.13
2019-01-23T17:48:42.004Z,49.07
2019-01-23T17:51:11.742Z,46.03
2019-01-23T17:53:41.466Z,44.90
2019-01-23T17:56:11.212Z,47.97
2019-01-23T17:58:41.244Z,42.30
2019-01-23T18:01:11.569Z,74.77
2019-01-23T18:03:41.636Z,48.20
2019-01-23T18:06:11.451Z,50.97
2019-01-23T18:08:41.373Z,43.50
2019-01-23T18:11:11.047Z,45.28
2019-01-23T18:13:40.745Z,46.57
2019-01-23T18:16:11.885Z,47.50
2019-01-23T18:18:41.703Z,40.83
2019-01-23T18:21:11.731Z,42.37
2019-01-23T18:23:41.477Z,43.87
2019-01-23T18:26:12.590Z,41.13
2019-01-23T18:28:42.745Z,46.50
2019-01-23T18:31:22.893Z,48.00
2019-01-23T18:34:52.360Z,41.03
2019-01-23T18:37:55.480Z,44.23
2019-01-23T18:41:21.363Z,52.00
2019-01-23T18:44:20.119Z,43.87
2019-01-23T18:47:28.083Z,43.00
2019-01-23T18:50:41.306Z,39.73
2019-01-23T18:53:11.196Z,48.80
2019-01-23T18:55:41.031Z,49.20
2019-01-23T18:58:10.904Z,47.10
2019-01-23T19:00:42.107Z,72.50
2019-01-23T19:03:12.870Z,59.80
2019-01-23T19:05:43.004Z,52.30
2019-01-23T19:08:13.994Z,56.47
2019-01-23T19:10:44.380Z,52.50
2019-01-23T19:13:14.161Z,66.97
2019-01-23T19:15:44.094Z,48.37
2019-01-23T19:18:13.979Z,43.50
2019-01-23T19:20:45.319Z,43.23
2019-01-23T19:23:15.093Z,44.80
2019-01-23T19:25:44.833Z,43.97
2019-01-23T19:28:14.640Z,42.60
2019-01-23T19:30:44.485Z,44.33
2019-01-23T19:33:14.481Z,43.53
2019-01-23T19:35:44.415Z,45.07
2019-01-23T19:38:14.408Z,47.13
2019-01-23T19:40:44.156Z,46.20
2019-01-23T19:43:14.035Z,47.30
2019-01-23T19:45:43.839Z,45.90
2019-01-23T19:48:13.669Z,44.30
2019-01-23T19:50:43.460Z,52.47
2019-01-23T19:53:13.283Z,38.80
2019-01-23T19:55:43.100Z,48.47
2019-01-23T19:58:12.888Z,44.60
2019-01-23T20:00:42.721Z,45.60
2019-01-23T20:03:12.648Z,44.43
2019-01-23T20:05:42.415Z,43.10
2019-01-23T20:08:12.234Z,42.10
2019-01-23T20:10:42.266Z,41.30
2019-01-23T20:13:12.288Z,51.33
2019-01-23T20:15:42.059Z,43.57
2019-01-23T20:18:12.281Z,41.93
2019-01-23T20:20:42.925Z,39.60
2019-01-23T20:23:12.679Z,49.23
2019-01-23T20:25:42.471Z,43.93
2019-01-23T20:28:13.636Z,42.77
2019-01-23T20:30:45.729Z,78.77
2019-01-23T20:33:17.275Z,50.63
2019-01-23T20:35:47.111Z,36.73
2019-01-23T20:38:17.896Z,47.13
2019-01-23T20:40:47.938Z,46.77
2019-01-23T20:43:18.063Z,47.60
2019-01-23T20:45:47.849Z,39.53
2019-01-23T20:48:17.681Z,44.80
2019-01-23T20:50:47.773Z,114.63
2019-01-23T20:53:19.336Z,64.47
2019-01-23T20:55:49.040Z,54.03
2019-01-23T20:58:18.706Z,48.43
2019-01-23T21:00:48.471Z,54.93
2019-01-23T21:03:19.892Z,48.47
2019-01-23T21:05:49.674Z,46.90
2019-01-23T21:08:19.422Z,56.80
2019-01-23T21:10:49.194Z,48.70
2019-01-23T21:13:19.712Z,51.90
2019-01-23T21:15:49.848Z,50.83
2019-01-23T21:18:19.699Z,44.03
2019-01-23T21:20:49.461Z,46.37
2019-01-23T21:23:19.519Z,49.53
2019-01-23T21:25:49.934Z,52.73
2019-01-23T21:28:20.050Z,53.60
2019-01-23T21:30:51.514Z,59.37
2019-01-23T21:33:21.630Z,45.93
2019-01-23T21:35:51.305Z,63.77
2019-01-23T21:38:21.133Z,55.27
2019-01-23T21:40:51.544Z,52.30
2019-01-23T21:43:21.386Z,52.03
2019-01-23T21:45:51.206Z,55.17
2019-01-23T21:48:20.951Z,41.73
2019-01-23T21:50:50.625Z,56.53
2019-01-23T21:53:20.424Z,56.75
2019-01-23T21:55:51.202Z,53.23
2019-01-23T21:58:20.977Z,61.13
2019-01-23T22:00:56.870Z,48.60
2019-01-23T22:03:26.957Z,54.17
2019-01-23T22:05:56.982Z,48.50
2019-01-23T22:08:27.621Z,50.97
2019-01-23T22:10:57.311Z,48.07
2019-01-23T22:13:27.136Z,52.07
2019-01-23T22:15:57.228Z,49.97
2019-01-23T22:18:27.330Z,50.60
2019-01-23T22:20:57.043Z,51.07
2019-01-23T22:23:27.058Z,46.77
2019-01-23T22:25:56.823Z,49.00
2019-01-23T22:28:26.631Z,51.07
2019-01-23T22:30:56.385Z,51.97
2019-01-23T22:33:26.221Z,47.70
2019-01-23T22:35:56.051Z,47.30
2019-01-23T22:38:25.794Z,56.00
2019-01-23T22:40:55.557Z,48.17
2019-01-23T22:43:25.515Z,54.10
2019-01-23T22:45:55.191Z,43.97
2019-01-23T22:48:25.040Z,58.90
2019-01-23T22:50:54.811Z,48.47
2019-01-23T22:53:25.050Z,54.57
2019-01-23T22:55:55.089Z,52.10
2019-01-23T22:58:24.771Z,52.30
2019-01-23T23:01:18.538Z,65.03
2019-01-23T23:03:48.456Z,60.00
2019-01-23T23:06:18.265Z,58.10
2019-01-23T23:08:48.165Z,79.60
2019-01-23T23:11:17.841Z,115.90
2019-01-23T23:13:47.724Z,96.13
2019-01-23T23:16:17.766Z,61.87
2019-01-23T23:18:48.582Z,59.30
2019-01-23T23:21:18.469Z,61.83
2019-01-23T23:23:48.682Z,60.37
2019-01-23T23:26:18.481Z,65.60
2019-01-23T23:28:48.590Z,56.53
2019-01-23T23:31:18.698Z,59.48
2019-01-23T23:33:48.348Z,65.50
2019-01-23T23:36:18.019Z,61.80
2019-01-23T23:38:47.679Z,74.13
2019-01-23T23:41:17.429Z,60.33
2019-01-23T23:43:47.225Z,62.67
2019-01-23T23:46:17.046Z,60.80
2019-01-23T23:48:46.717Z,60.60
2019-01-23T23:51:16.555Z,58.47
2019-01-23T23:53:46.334Z,62.67
2019-01-23T23:56:17.071Z,61.87
2019-01-23T23:58:46.877Z,75.83
